sensor_id;sensor_type;location;lat;lon;timestamp;pressure;altitude;pressure_sealevel;temperature;humidity
54870;BME280;40756;-37.950;145.008;2024-03-29T00:01:03;102284.12;;;20.72;42.38
54870;BME280;40756;-37.950;145.008;2024-03-29T00:03:33;102277.54;;;20.55;41.94
54870;BME280;40756;-37.950;145.008;2024-03-29T00:06:03;102272.86;;;20.71;41.77
54870;BME280;40756;-37.950;145.008;2024-03-29T00:08:32;102275.35;;;20.44;41.73
54870;BME280;40756;-37.950;145.008;2024-03-29T00:11:01;102273.61;;;20.98;40.37
54870;BME280;40756;-37.950;145.008;2024-03-29T00:13:32;102268.21;;;20.68;40.39
54870;BME280;40756;-37.950;145.008;2024-03-29T00:16:01;102262.93;;;21.62;39.36
54870;BME280;40756;-37.950;145.008;2024-03-29T00:18:31;102261.93;;;21.73;39.56
54870;BME280;40756;-37.950;145.008;2024-03-29T00:21:01;102257.08;;;21.65;39.30
54870;BME280;40756;-37.950;145.008;2024-03-29T00:23:31;102257.37;;;21.79;38.57
54870;BME280;40756;-37.950;145.008;2024-03-29T00:26:01;102252.89;;;21.52;37.29
54870;BME280;40756;-37.950;145.008;2024-03-29T00:28:31;102248.65;;;22.20;36.64
54870;BME280;40756;-37.950;145.008;2024-03-29T00:31:00;102247.84;;;22.37;37.02
54870;BME280;40756;-37.950;145.008;2024-03-29T00:33:29;102241.70;;;22.62;36.84
54870;BME280;40756;-37.950;145.008;2024-03-29T00:35:59;102240.21;;;22.75;35.40
54870;BME280;40756;-37.950;145.008;2024-03-29T00:38:28;102236.82;;;22.89;35.16
54870;BME280;40756;-37.950;145.008;2024-03-29T00:40:57;102233.19;;;23.12;34.58
54870;BME280;40756;-37.950;145.008;2024-03-29T00:43:27;102227.25;;;23.36;35.38
54870;BME280;40756;-37.950;145.008;2024-03-29T00:45:56;102218.64;;;23.86;34.25
54870;BME280;40756;-37.950;145.008;2024-03-29T00:48:26;102214.36;;;23.43;34.15
54870;BME280;40756;-37.950;145.008;2024-03-29T00:50:55;102212.80;;;23.79;34.52
54870;BME280;40756;-37.950;145.008;2024-03-29T00:53:26;102211.16;;;23.79;33.25
54870;BME280;40756;-37.950;145.008;2024-03-29T00:55:56;102203.68;;;23.95;32.12
54870;BME280;40756;-37.950;145.008;2024-03-29T00:58:26;102201.94;;;24.10;31.65
54870;BME280;40756;-37.950;145.008;2024-03-29T01:00:55;102196.61;;;24.53;32.95
54870;BME280;40756;-37.950;145.008;2024-03-29T01:03:25;102193.54;;;24.68;32.12
54870;BME280;40756;-37.950;145.008;2024-03-29T01:05:54;102192.69;;;25.07;31.93
54870;BME280;40756;-37.950;145.008;2024-03-29T01:08:24;102188.25;;;25.29;31.13
54870;BME280;40756;-37.950;145.008;2024-03-29T01:10:53;102181.72;;;25.26;31.55
54870;BME280;40756;-37.950;145.008;2024-03-29T01:13:23;102180.46;;;25.43;29.39
54870;BME280;40756;-37.950;145.008;2024-03-29T01:15:53;102172.30;;;24.95;27.91
54870;BME280;40756;-37.950;145.008;2024-03-29T01:18:23;102172.74;;;25.18;27.33
54870;BME280;40756;-37.950;145.008;2024-03-29T01:20:53;102167.88;;;25.00;26.83
54870;BME280;40756;-37.950;145.008;2024-03-29T01:23:22;102164.42;;;25.49;27.24
54870;BME280;40756;-37.950;145.008;2024-03-29T01:25:51;102160.25;;;25.95;27.35
54870;BME280;40756;-37.950;145.008;2024-03-29T01:28:21;102161.20;;;25.74;26.21
54870;BME280;40756;-37.950;145.008;2024-03-29T01:30:54;102158.78;;;26.17;25.04
54870;BME280;40756;-37.950;145.008;2024-03-29T01:33:23;102155.43;;;26.17;28.59
54870;BME280;40756;-37.950;145.008;2024-03-29T01:35:54;102151.15;;;25.08;31.33
54870;BME280;40756;-37.950;145.008;2024-03-29T01:38:24;102150.35;;;24.76;31.82
54870;BME280;40756;-37.950;145.008;2024-03-29T01:40:53;102151.53;;;24.11;32.64
54870;BME280;40756;-37.950;145.008;2024-03-29T01:43:22;102150.68;;;23.82;35.15
54870;BME280;40756;-37.950;145.008;2024-03-29T01:45:54;102142.75;;;24.86;34.23
54870;BME280;40756;-37.950;145.008;2024-03-29T01:48:25;102139.20;;;23.80;35.38
54870;BME280;40756;-37.950;145.008;2024-03-29T01:50:57;102141.17;;;23.11;37.07
54870;BME280;40756;-37.950;145.008;2024-03-29T01:53:27;102135.09;;;23.50;36.61
54870;BME280;40756;-37.950;145.008;2024-03-29T01:55:58;102137.48;;;23.67;36.96
54870;BME280;40756;-37.950;145.008;2024-03-29T01:58:29;102139.27;;;23.25;37.91
54870;BME280;40756;-37.950;145.008;2024-03-29T02:01:00;102137.37;;;24.28;37.51
54870;BME280;40756;-37.950;145.008;2024-03-29T02:03:30;102131.63;;;24.25;37.03
54870;BME280;40756;-37.950;145.008;2024-03-29T02:06:00;102123.97;;;24.56;36.16
54870;BME280;40756;-37.950;145.008;2024-03-29T02:08:30;102126.34;;;24.52;36.78
54870;BME280;40756;-37.950;145.008;2024-03-29T02:11:00;102124.12;;;23.61;38.53
54870;BME280;40756;-37.950;145.008;2024-03-29T02:13:30;102128.08;;;23.39;38.91
54870;BME280;40756;-37.950;145.008;2024-03-29T02:16:01;102121.41;;;23.98;37.89
54870;BME280;40756;-37.950;145.008;2024-03-29T02:18:31;102116.76;;;23.11;39.03
54870;BME280;40756;-37.950;145.008;2024-03-29T02:21:01;102110.59;;;24.31;37.78
54870;BME280;40756;-37.950;145.008;2024-03-29T02:23:34;102108.96;;;23.57;37.99
54870;BME280;40756;-37.950;145.008;2024-03-29T02:26:05;102100.05;;;24.57;36.73
54870;BME280;40756;-37.950;145.008;2024-03-29T02:28:35;102094.92;;;24.97;35.13
54870;BME280;40756;-37.950;145.008;2024-03-29T02:31:04;102095.05;;;25.32;35.95
54870;BME280;40756;-37.950;145.008;2024-03-29T02:33:34;102089.84;;;24.66;35.76
54870;BME280;40756;-37.950;145.008;2024-03-29T02:36:04;102083.41;;;24.73;35.26
54870;BME280;40756;-37.950;145.008;2024-03-29T02:38:34;102086.30;;;25.35;34.90
54870;BME280;40756;-37.950;145.008;2024-03-29T02:41:04;102089.43;;;24.71;34.60
54870;BME280;40756;-37.950;145.008;2024-03-29T02:43:33;102084.49;;;25.29;34.68
54870;BME280;40756;-37.950;145.008;2024-03-29T02:46:03;102074.49;;;24.89;35.83
54870;BME280;40756;-37.950;145.008;2024-03-29T02:48:33;102071.46;;;24.77;35.66
54870;BME280;40756;-37.950;145.008;2024-03-29T02:51:02;102069.01;;;24.35;36.44
54870;BME280;40756;-37.950;145.008;2024-03-29T02:53:32;102064.09;;;24.39;36.71
54870;BME280;40756;-37.950;145.008;2024-03-29T02:56:01;102058.97;;;25.05;34.94
54870;BME280;40756;-37.950;145.008;2024-03-29T02:58:30;102059.95;;;24.94;35.34
54870;BME280;40756;-37.950;145.008;2024-03-29T03:01:07;102055.20;;;26.55;34.22
54870;BME280;40756;-37.950;145.008;2024-03-29T03:03:37;102057.91;;;26.80;32.88
54870;BME280;40756;-37.950;145.008;2024-03-29T03:06:06;102052.03;;;26.42;33.48
54870;BME280;40756;-37.950;145.008;2024-03-29T03:08:36;102054.40;;;26.85;31.92
54870;BME280;40756;-37.950;145.008;2024-03-29T03:11:06;102049.87;;;25.65;32.90
54870;BME280;40756;-37.950;145.008;2024-03-29T03:13:35;102043.85;;;25.18;34.58
54870;BME280;40756;-37.950;145.008;2024-03-29T03:16:06;102045.03;;;24.52;35.69
54870;BME280;40756;-37.950;145.008;2024-03-29T03:18:36;102039.91;;;26.43;34.24
54870;BME280;40756;-37.950;145.008;2024-03-29T03:21:06;102033.92;;;26.34;33.26
54870;BME280;40756;-37.950;145.008;2024-03-29T03:23:36;102030.54;;;25.37;34.25
54870;BME280;40756;-37.950;145.008;2024-03-29T03:26:05;102027.49;;;25.29;34.70
54870;BME280;40756;-37.950;145.008;2024-03-29T03:28:35;102023.20;;;25.82;33.28
54870;BME280;40756;-37.950;145.008;2024-03-29T03:31:04;102020.93;;;25.22;33.38
54870;BME280;40756;-37.950;145.008;2024-03-29T03:33:34;102012.52;;;26.99;31.35
54870;BME280;40756;-37.950;145.008;2024-03-29T03:36:04;102011.22;;;25.75;30.67
54870;BME280;40756;-37.950;145.008;2024-03-29T03:38:33;102010.68;;;25.93;31.36
54870;BME280;40756;-37.950;145.008;2024-03-29T03:41:02;102003.24;;;26.89;30.50
54870;BME280;40756;-37.950;145.008;2024-03-29T03:43:32;101997.37;;;26.99;29.90
54870;BME280;40756;-37.950;145.008;2024-03-29T03:46:02;101992.61;;;27.44;30.31
54870;BME280;40756;-37.950;145.008;2024-03-29T03:48:32;101991.33;;;27.27;30.00
54870;BME280;40756;-37.950;145.008;2024-03-29T03:51:01;101991.75;;;27.50;30.10
54870;BME280;40756;-37.950;145.008;2024-03-29T03:53:31;101990.41;;;27.03;31.21
54870;BME280;40756;-37.950;145.008;2024-03-29T03:56:01;101988.63;;;27.57;31.24
54870;BME280;40756;-37.950;145.008;2024-03-29T03:58:30;101991.76;;;27.67;29.74
54870;BME280;40756;-37.950;145.008;2024-03-29T04:01:05;101998.66;;;27.01;30.24
54870;BME280;40756;-37.950;145.008;2024-03-29T04:03:35;101993.82;;;26.96;30.98
54870;BME280;40756;-37.950;145.008;2024-03-29T04:06:05;101986.58;;;27.05;30.03
54870;BME280;40756;-37.950;145.008;2024-03-29T04:08:35;101983.96;;;27.38;28.73
54870;BME280;40756;-37.950;145.008;2024-03-29T04:11:04;101986.82;;;26.75;28.18
54870;BME280;40756;-37.950;145.008;2024-03-29T04:13:34;101981.23;;;26.73;28.75
54870;BME280;40756;-37.950;145.008;2024-03-29T04:16:05;101979.42;;;27.70;27.45
54870;BME280;40756;-37.950;145.008;2024-03-29T04:18:35;101973.33;;;29.02;26.68
54870;BME280;40756;-37.950;145.008;2024-03-29T04:21:05;101971.75;;;27.78;26.64
54870;BME280;40756;-37.950;145.008;2024-03-29T04:23:36;101967.25;;;28.29;26.44
54870;BME280;40756;-37.950;145.008;2024-03-29T04:26:06;101964.49;;;28.15;27.22
54870;BME280;40756;-37.950;145.008;2024-03-29T04:28:36;101964.31;;;26.82;28.36
54870;BME280;40756;-37.950;145.008;2024-03-29T04:31:06;101964.87;;;27.02;28.20
54870;BME280;40756;-37.950;145.008;2024-03-29T04:33:35;101959.87;;;28.02;26.88
54870;BME280;40756;-37.950;145.008;2024-03-29T04:36:06;101963.62;;;27.11;27.87
54870;BME280;40756;-37.950;145.008;2024-03-29T04:38:35;101953.54;;;26.95;28.03
54870;BME280;40756;-37.950;145.008;2024-03-29T04:41:05;101952.51;;;27.68;26.37
54870;BME280;40756;-37.950;145.008;2024-03-29T04:43:34;101950.90;;;27.59;26.35
54870;BME280;40756;-37.950;145.008;2024-03-29T04:46:07;101949.60;;;28.62;26.94
54870;BME280;40756;-37.950;145.008;2024-03-29T04:48:37;101947.68;;;27.48;26.62
54870;BME280;40756;-37.950;145.008;2024-03-29T04:51:07;101947.56;;;28.68;26.33
54870;BME280;40756;-37.950;145.008;2024-03-29T04:53:37;101950.19;;;27.52;27.19
54870;BME280;40756;-37.950;145.008;2024-03-29T04:56:07;101949.78;;;27.64;26.15
54870;BME280;40756;-37.950;145.008;2024-03-29T04:58:37;101951.52;;;26.84;26.89
54870;BME280;40756;-37.950;145.008;2024-03-29T05:01:07;101947.58;;;27.54;27.00
54870;BME280;40756;-37.950;145.008;2024-03-29T05:03:36;101952.30;;;27.30;26.63
54870;BME280;40756;-37.950;145.008;2024-03-29T05:06:06;101947.25;;;27.69;26.90
54870;BME280;40756;-37.950;145.008;2024-03-29T05:08:36;101946.01;;;27.56;26.97
54870;BME280;40756;-37.950;145.008;2024-03-29T05:11:06;101952.95;;;28.12;26.04
54870;BME280;40756;-37.950;145.008;2024-03-29T05:13:35;101956.47;;;25.86;28.10
54870;BME280;40756;-37.950;145.008;2024-03-29T05:16:06;101955.40;;;27.61;26.57
54870;BME280;40756;-37.950;145.008;2024-03-29T05:18:35;101953.42;;;26.98;27.37
54870;BME280;40756;-37.950;145.008;2024-03-29T05:21:06;101951.15;;;27.32;27.37
54870;BME280;40756;-37.950;145.008;2024-03-29T05:23:35;101949.36;;;27.34;27.42
54870;BME280;40756;-37.950;145.008;2024-03-29T05:26:05;101942.95;;;28.64;26.16
54870;BME280;40756;-37.950;145.008;2024-03-29T05:28:34;101941.87;;;26.85;26.89
54870;BME280;40756;-37.950;145.008;2024-03-29T05:31:13;101942.52;;;28.59;25.48
54870;BME280;40756;-37.950;145.008;2024-03-29T05:33:43;101943.02;;;28.05;25.86
54870;BME280;40756;-37.950;145.008;2024-03-29T05:36:14;101945.08;;;27.59;25.51
54870;BME280;40756;-37.950;145.008;2024-03-29T05:38:43;101946.09;;;27.96;25.42
54870;BME280;40756;-37.950;145.008;2024-03-29T05:41:13;101944.72;;;27.55;25.56
54870;BME280;40756;-37.950;145.008;2024-03-29T05:43:42;101944.69;;;27.14;26.26
54870;BME280;40756;-37.950;145.008;2024-03-29T05:46:11;101941.30;;;27.44;26.35
54870;BME280;40756;-37.950;145.008;2024-03-29T05:48:41;101942.28;;;28.10;25.19
54870;BME280;40756;-37.950;145.008;2024-03-29T05:51:10;101938.47;;;28.65;24.52
54870;BME280;40756;-37.950;145.008;2024-03-29T05:53:40;101934.09;;;27.72;26.00
54870;BME280;40756;-37.950;145.008;2024-03-29T05:56:10;101934.54;;;27.67;25.44
54870;BME280;40756;-37.950;145.008;2024-03-29T05:58:40;101932.98;;;27.47;25.60
54870;BME280;40756;-37.950;145.008;2024-03-29T06:01:09;101936.33;;;28.49;25.11
54870;BME280;40756;-37.950;145.008;2024-03-29T06:03:38;101932.79;;;27.23;24.96
54870;BME280;40756;-37.950;145.008;2024-03-29T06:06:09;101930.44;;;28.53;25.19
54870;BME280;40756;-37.950;145.008;2024-03-29T06:08:38;101927.40;;;28.32;25.06
54870;BME280;40756;-37.950;145.008;2024-03-29T06:11:08;101928.16;;;28.38;24.38
54870;BME280;40756;-37.950;145.008;2024-03-29T06:13:37;101927.46;;;27.30;25.89
54870;BME280;40756;-37.950;145.008;2024-03-29T06:16:09;101930.55;;;28.72;24.50
54870;BME280;40756;-37.950;145.008;2024-03-29T06:18:39;101933.82;;;28.31;24.36
54870;BME280;40756;-37.950;145.008;2024-03-29T06:21:09;101931.54;;;27.47;24.42
54870;BME280;40756;-37.950;145.008;2024-03-29T06:23:38;101931.07;;;28.32;24.57
54870;BME280;40756;-37.950;145.008;2024-03-29T06:26:08;101926.05;;;27.58;24.98
54870;BME280;40756;-37.950;145.008;2024-03-29T06:28:38;101924.77;;;28.04;24.98
54870;BME280;40756;-37.950;145.008;2024-03-29T06:31:07;101924.15;;;27.44;25.71
54870;BME280;40756;-37.950;145.008;2024-03-29T06:33:37;101928.44;;;26.71;26.70
54870;BME280;40756;-37.950;145.008;2024-03-29T06:36:07;101929.19;;;27.39;26.85
54870;BME280;40756;-37.950;145.008;2024-03-29T06:38:36;101935.12;;;26.59;27.60
54870;BME280;40756;-37.950;145.008;2024-03-29T06:41:06;101940.03;;;27.20;27.40
54870;BME280;40756;-37.950;145.008;2024-03-29T06:43:35;101947.24;;;25.16;29.77
54870;BME280;40756;-37.950;145.008;2024-03-29T06:46:05;101946.08;;;25.62;30.82
54870;BME280;40756;-37.950;145.008;2024-03-29T06:48:35;101945.32;;;24.60;32.90
54870;BME280;40756;-37.950;145.008;2024-03-29T06:51:04;101943.36;;;24.13;34.40
54870;BME280;40756;-37.950;145.008;2024-03-29T06:53:34;101942.69;;;24.83;34.07
54870;BME280;40756;-37.950;145.008;2024-03-29T06:56:04;101941.47;;;25.75;33.38
54870;BME280;40756;-37.950;145.008;2024-03-29T06:58:34;101942.98;;;24.08;35.74
54870;BME280;40756;-37.950;145.008;2024-03-29T07:01:04;101945.50;;;23.74;37.59
54870;BME280;40756;-37.950;145.008;2024-03-29T07:03:33;101950.00;;;25.41;36.94
54870;BME280;40756;-37.950;145.008;2024-03-29T07:06:04;101949.29;;;23.85;39.99
54870;BME280;40756;-37.950;145.008;2024-03-29T07:08:33;101949.47;;;24.35;40.06
54870;BME280;40756;-37.950;145.008;2024-03-29T07:11:03;101951.99;;;23.82;40.98
54870;BME280;40756;-37.950;145.008;2024-03-29T07:13:33;101951.29;;;22.22;43.92
54870;BME280;40756;-37.950;145.008;2024-03-29T07:16:03;101951.68;;;23.64;42.42
54870;BME280;40756;-37.950;145.008;2024-03-29T07:18:33;101951.82;;;23.58;42.91
54870;BME280;40756;-37.950;145.008;2024-03-29T07:21:03;101954.73;;;23.35;43.57
54870;BME280;40756;-37.950;145.008;2024-03-29T07:23:33;101956.76;;;22.79;44.61
54870;BME280;40756;-37.950;145.008;2024-03-29T07:26:04;101960.59;;;23.15;45.70
54870;BME280;40756;-37.950;145.008;2024-03-29T07:28:34;101970.06;;;23.22;46.21
54870;BME280;40756;-37.950;145.008;2024-03-29T07:31:07;101974.03;;;22.30;48.54
54870;BME280;40756;-37.950;145.008;2024-03-29T07:33:38;101978.43;;;22.60;49.18
54870;BME280;40756;-37.950;145.008;2024-03-29T07:36:08;101982.37;;;22.09;50.53
54870;BME280;40756;-37.950;145.008;2024-03-29T07:38:38;101983.02;;;22.23;50.25
54870;BME280;40756;-37.950;145.008;2024-03-29T07:41:07;101985.30;;;21.34;51.81
54870;BME280;40756;-37.950;145.008;2024-03-29T07:43:50;101988.82;;;21.42;51.45
54870;BME280;40756;-37.950;145.008;2024-03-29T07:46:20;101984.10;;;20.48;53.35
54870;BME280;40756;-37.950;145.008;2024-03-29T07:48:50;101987.40;;;20.35;54.98
54870;BME280;40756;-37.950;145.008;2024-03-29T07:51:20;101991.36;;;21.09;53.84
54870;BME280;40756;-37.950;145.008;2024-03-29T07:53:50;101999.50;;;21.34;52.99
54870;BME280;40756;-37.950;145.008;2024-03-29T07:56:20;101997.86;;;22.02;51.03
54870;BME280;40756;-37.950;145.008;2024-03-29T07:58:52;102001.64;;;21.45;50.97
54870;BME280;40756;-37.950;145.008;2024-03-29T08:01:23;102005.34;;;20.83;51.61
54870;BME280;40756;-37.950;145.008;2024-03-29T08:03:53;102010.53;;;20.62;52.68
54870;BME280;40756;-37.950;145.008;2024-03-29T08:06:24;102011.38;;;21.00;51.52
54870;BME280;40756;-37.950;145.008;2024-03-29T08:08:54;102017.31;;;20.79;51.82
54870;BME280;40756;-37.950;145.008;2024-03-29T08:11:23;102019.96;;;20.71;50.94
54870;BME280;40756;-37.950;145.008;2024-03-29T08:13:53;102021.80;;;20.44;52.64
54870;BME280;40756;-37.950;145.008;2024-03-29T08:16:22;102023.09;;;20.96;51.89
54870;BME280;40756;-37.950;145.008;2024-03-29T08:18:52;102027.04;;;20.92;50.24
54870;BME280;40756;-37.950;145.008;2024-03-29T08:21:22;102023.34;;;21.36;49.13
54870;BME280;40756;-37.950;145.008;2024-03-29T08:23:52;102030.33;;;20.68;50.06
54870;BME280;40756;-37.950;145.008;2024-03-29T08:26:22;102030.54;;;20.71;50.50
54870;BME280;40756;-37.950;145.008;2024-03-29T08:28:51;102028.46;;;21.18;49.27
54870;BME280;40756;-37.950;145.008;2024-03-29T08:31:21;102033.54;;;20.98;50.50
54870;BME280;40756;-37.950;145.008;2024-03-29T08:33:51;102029.73;;;21.26;50.39
54870;BME280;40756;-37.950;145.008;2024-03-29T08:36:21;102033.49;;;21.17;50.28
54870;BME280;40756;-37.950;145.008;2024-03-29T08:38:51;102034.08;;;21.23;50.33
54870;BME280;40756;-37.950;145.008;2024-03-29T08:41:20;102039.48;;;20.84;50.47
54870;BME280;40756;-37.950;145.008;2024-03-29T08:43:50;102044.60;;;21.08;51.05
54870;BME280;40756;-37.950;145.008;2024-03-29T08:46:19;102044.84;;;20.89;51.72
54870;BME280;40756;-37.950;145.008;2024-03-29T08:48:49;102045.09;;;20.53;51.39
54870;BME280;40756;-37.950;145.008;2024-03-29T08:51:19;102045.96;;;20.48;51.78
54870;BME280;40756;-37.950;145.008;2024-03-29T08:53:49;102047.88;;;21.21;51.21
54870;BME280;40756;-37.950;145.008;2024-03-29T08:56:18;102046.99;;;21.34;50.72
54870;BME280;40756;-37.950;145.008;2024-03-29T08:58:47;102047.00;;;21.18;51.49
54870;BME280;40756;-37.950;145.008;2024-03-29T09:01:17;102046.58;;;20.97;52.00
54870;BME280;40756;-37.950;145.008;2024-03-29T09:03:47;102049.26;;;21.05;51.75
54870;BME280;40756;-37.950;145.008;2024-03-29T09:06:16;102051.55;;;21.41;51.08
54870;BME280;40756;-37.950;145.008;2024-03-29T09:08:46;102054.25;;;21.60;50.58
54870;BME280;40756;-37.950;145.008;2024-03-29T09:11:16;102054.12;;;21.66;50.32
54870;BME280;40756;-37.950;145.008;2024-03-29T09:13:46;102052.81;;;21.11;50.66
54870;BME280;40756;-37.950;145.008;2024-03-29T09:16:16;102058.54;;;20.71;51.27
54870;BME280;40756;-37.950;145.008;2024-03-29T09:18:47;102059.95;;;19.91;52.33
54870;BME280;40756;-37.950;145.008;2024-03-29T09:21:17;102064.79;;;20.80;50.44
54870;BME280;40756;-37.950;145.008;2024-03-29T09:23:47;102069.92;;;21.00;48.06
54870;BME280;40756;-37.950;145.008;2024-03-29T09:26:17;102073.36;;;20.97;47.24
54870;BME280;40756;-37.950;145.008;2024-03-29T09:28:47;102079.78;;;21.36;46.59
54870;BME280;40756;-37.950;145.008;2024-03-29T09:31:17;102081.09;;;21.12;45.74
54870;BME280;40756;-37.950;145.008;2024-03-29T09:33:46;102086.30;;;20.17;46.30
54870;BME280;40756;-37.950;145.008;2024-03-29T09:36:16;102081.15;;;20.85;45.16
54870;BME280;40756;-37.950;145.008;2024-03-29T09:38:46;102082.97;;;20.47;45.33
54870;BME280;40756;-37.950;145.008;2024-03-29T09:41:16;102087.60;;;21.15;44.16
54870;BME280;40756;-37.950;145.008;2024-03-29T09:43:47;102097.08;;;19.86;45.06
54870;BME280;40756;-37.950;145.008;2024-03-29T09:46:17;102099.51;;;21.01;43.79
54870;BME280;40756;-37.950;145.008;2024-03-29T09:48:47;102102.62;;;20.35;44.18
54870;BME280;40756;-37.950;145.008;2024-03-29T09:51:17;102107.01;;;20.83;43.47
54870;BME280;40756;-37.950;145.008;2024-03-29T09:53:49;102108.73;;;19.57;45.34
54870;BME280;40756;-37.950;145.008;2024-03-29T09:56:19;102111.71;;;20.13;44.85
54870;BME280;40756;-37.950;145.008;2024-03-29T09:58:49;102113.98;;;19.66;45.51
54870;BME280;40756;-37.950;145.008;2024-03-29T10:01:19;102122.04;;;19.28;46.59
54870;BME280;40756;-37.950;145.008;2024-03-29T10:03:51;102132.20;;;20.07;45.19
54870;BME280;40756;-37.950;145.008;2024-03-29T10:06:23;102141.97;;;20.02;45.21
54870;BME280;40756;-37.950;145.008;2024-03-29T10:08:53;102141.25;;;19.84;45.13
54870;BME280;40756;-37.950;145.008;2024-03-29T10:11:23;102146.35;;;19.94;44.73
54870;BME280;40756;-37.950;145.008;2024-03-29T10:13:53;102152.27;;;20.19;45.14
54870;BME280;40756;-37.950;145.008;2024-03-29T10:16:23;102157.11;;;20.09;44.92
54870;BME280;40756;-37.950;145.008;2024-03-29T10:18:53;102164.35;;;20.05;44.44
54870;BME280;40756;-37.950;145.008;2024-03-29T10:21:27;102163.40;;;20.14;44.47
54870;BME280;40756;-37.950;145.008;2024-03-29T10:23:56;102168.32;;;19.84;44.87
54870;BME280;40756;-37.950;145.008;2024-03-29T10:26:26;102171.53;;;19.82;44.81
54870;BME280;40756;-37.950;145.008;2024-03-29T10:28:56;102171.83;;;20.03;45.33
54870;BME280;40756;-37.950;145.008;2024-03-29T10:31:26;102171.51;;;19.51;45.82
54870;BME280;40756;-37.950;145.008;2024-03-29T10:33:56;102171.78;;;19.81;45.73
54870;BME280;40756;-37.950;145.008;2024-03-29T10:36:32;102172.68;;;19.78;45.22
54870;BME280;40756;-37.950;145.008;2024-03-29T10:39:02;102175.14;;;19.31;46.05
54870;BME280;40756;-37.950;145.008;2024-03-29T10:41:39;102179.88;;;19.55;46.16
54870;BME280;40756;-37.950;145.008;2024-03-29T10:44:10;102176.69;;;19.45;46.44
54870;BME280;40756;-37.950;145.008;2024-03-29T10:46:40;102179.38;;;19.36;46.59
54870;BME280;40756;-37.950;145.008;2024-03-29T10:49:11;102187.77;;;19.06;47.27
54870;BME280;40756;-37.950;145.008;2024-03-29T10:51:41;102193.52;;;19.21;47.06
54870;BME280;40756;-37.950;145.008;2024-03-29T10:54:11;102197.79;;;18.89;47.68
54870;BME280;40756;-37.950;145.008;2024-03-29T10:56:42;102198.78;;;18.87;47.56
54870;BME280;40756;-37.950;145.008;2024-03-29T10:59:20;102199.68;;;18.89;47.46
54870;BME280;40756;-37.950;145.008;2024-03-29T11:02:00;102202.24;;;19.04;47.71
54870;BME280;40756;-37.950;145.008;2024-03-29T11:04:34;102202.96;;;18.72;48.59
54870;BME280;40756;-37.950;145.008;2024-03-29T11:07:10;102200.70;;;18.73;48.06
54870;BME280;40756;-37.950;145.008;2024-03-29T11:09:44;102199.62;;;18.71;49.09
54870;BME280;40756;-37.950;145.008;2024-03-29T11:12:15;102197.82;;;18.79;48.83
54870;BME280;40756;-37.950;145.008;2024-03-29T11:14:49;102196.16;;;18.30;49.33
54870;BME280;40756;-37.950;145.008;2024-03-29T11:17:21;102202.79;;;18.40;49.10
54870;BME280;40756;-37.950;145.008;2024-03-29T11:19:51;102207.66;;;18.12;49.70
54870;BME280;40756;-37.950;145.008;2024-03-29T11:22:22;102210.55;;;18.00;50.71
54870;BME280;40756;-37.950;145.008;2024-03-29T11:24:53;102207.90;;;18.16;50.21
54870;BME280;40756;-37.950;145.008;2024-03-29T11:27:24;102203.41;;;18.02;50.47
54870;BME280;40756;-37.950;145.008;2024-03-29T11:29:54;102198.87;;;17.81;50.83
54870;BME280;40756;-37.950;145.008;2024-03-29T11:32:40;102197.40;;;17.75;50.80
54870;BME280;40756;-37.950;145.008;2024-03-29T11:35:16;102200.87;;;17.57;51.29
54870;BME280;40756;-37.950;145.008;2024-03-29T11:37:46;102201.61;;;17.62;50.63
54870;BME280;40756;-37.950;145.008;2024-03-29T11:40:29;102200.04;;;17.66;51.05
54870;BME280;40756;-37.950;145.008;2024-03-29T11:42:59;102203.18;;;17.62;50.89
54870;BME280;40756;-37.950;145.008;2024-03-29T11:45:30;102205.11;;;17.53;51.53
54870;BME280;40756;-37.950;145.008;2024-03-29T11:48:03;102207.47;;;18.03;50.90
54870;BME280;40756;-37.950;145.008;2024-03-29T11:50:36;102213.18;;;17.78;51.23
54870;BME280;40756;-37.950;145.008;2024-03-29T11:53:07;102218.06;;;17.95;51.44
54870;BME280;40756;-37.950;145.008;2024-03-29T11:55:37;102220.48;;;17.43;51.59
54870;BME280;40756;-37.950;145.008;2024-03-29T11:58:07;102222.79;;;17.71;51.16
54870;BME280;40756;-37.950;145.008;2024-03-29T12:00:37;102222.71;;;17.01;52.07
54870;BME280;40756;-37.950;145.008;2024-03-29T12:03:07;102223.86;;;17.76;51.22
54870;BME280;40756;-37.950;145.008;2024-03-29T12:05:37;102222.26;;;17.61;51.81
54870;BME280;40756;-37.950;145.008;2024-03-29T12:08:07;102218.11;;;16.97;52.28
54870;BME280;40756;-37.950;145.008;2024-03-29T12:10:37;102216.56;;;17.28;52.26
54870;BME280;40756;-37.950;145.008;2024-03-29T12:13:08;102217.14;;;17.53;52.24
54870;BME280;40756;-37.950;145.008;2024-03-29T12:15:38;102218.24;;;17.06;52.04
54870;BME280;40756;-37.950;145.008;2024-03-29T12:18:07;102219.04;;;17.27;52.64
54870;BME280;40756;-37.950;145.008;2024-03-29T12:20:37;102220.07;;;17.31;52.68
54870;BME280;40756;-37.950;145.008;2024-03-29T12:23:10;102219.86;;;17.32;52.66
54870;BME280;40756;-37.950;145.008;2024-03-29T12:25:40;102216.77;;;17.09;52.91
54870;BME280;40756;-37.950;145.008;2024-03-29T12:28:11;102219.49;;;17.20;52.79
54870;BME280;40756;-37.950;145.008;2024-03-29T12:30:43;102218.75;;;16.52;53.44
54870;BME280;40756;-37.950;145.008;2024-03-29T12:33:15;102220.78;;;16.71;53.35
54870;BME280;40756;-37.950;145.008;2024-03-29T12:35:46;102221.54;;;17.18;52.59